Portada
METAR-TAF:

METAR-TAF

Aeroports :

Gibraltar, Gibraltar

latitud: 36-09N, longitud: 005-21W, altitud: 5 m

Observació

L'informe es va fer fa 1 hora i 5 minuts, a les 01:50 UTC
Vent 11 kt del Sud-Oest
Temperatura 24°C
Humitat 41%
Pressió 1014 hPa
Visibilitat 10 km o més

METAR: LXGB 200150Z AUTO 23011KT 9999 // SCT190/// 24/10 Q1014

Hora: 04:55 (02:55 UTC)

Pronòstic

L'informe es va fer fa 7 hores i 6 minuts, a les 19:49 UTC
Pronòstic vàlid del 19 a les 21 UTC al 19 a les 24 UTC
Vent 8 kt del Oest/Sud-Oest
Visibilitat 10 km o més
sense núvols per sota de 1500 mi sense presència de cumulonimbus.

TAF: LXGB 191949Z 1921/1924 24008KT CAVOK

Observacions i pronòstics meteorològics de més de 4000 aeroports (METAR i TAF).

Les estacions disponibles són els punts grocs i vermells al mapa.

Posi el ratolí al punt desitjat per veure el nom de l'estació.

Feu clic per veure les observacions i els pronòstics meteorològics.

Per canviar el mapa: feu clic els botons verds amb una creu de color negre per apropar; al botó verd amb un guió per allunyar la imatge; o en les fletxes verdes per a mapes adjacents.


METAR-TAF: